createdAt,value
2023-04-12T00:00:11.698Z,87.99
2023-04-12T00:02:39.517Z,89.60
2023-04-12T00:05:06.737Z,88.74
2023-04-12T00:07:33.854Z,88.72
2023-04-12T00:10:00.685Z,88.55
2023-04-12T00:12:27.413Z,88.35
2023-04-12T00:14:54.100Z,88.27
2023-04-12T00:17:20.871Z,87.51
2023-04-12T00:19:47.888Z,89.27
2023-04-12T00:22:15.003Z,89.45
2023-04-12T00:24:41.757Z,89.38
2023-04-12T00:27:08.462Z,89.26
2023-04-12T00:29:35.185Z,89.90
2023-04-12T00:32:03.720Z,89.96
2023-04-12T00:34:30.543Z,92.19
2023-04-12T00:36:57.230Z,92.26
2023-04-12T00:39:23.944Z,91.64
2023-04-12T00:41:50.984Z,91.50
2023-04-12T00:44:18.416Z,92.12
2023-04-12T00:46:46.503Z,91.66
2023-04-12T00:49:13.291Z,91.09
2023-04-12T00:51:39.988Z,92.29
2023-04-12T00:54:06.971Z,90.73
2023-04-12T00:56:33.886Z,91.32
2023-04-12T00:59:00.674Z,91.70
2023-04-12T01:01:28.379Z,90.45
2023-04-12T01:03:55.178Z,90.53
2023-04-12T01:06:42.582Z,90.52
2023-04-12T01:09:15.842Z,89.74
2023-04-12T01:11:45.040Z,89.77
2023-04-12T01:14:41.358Z,88.56
2023-04-12T01:17:08.269Z,89.80
2023-04-12T01:19:53.694Z,88.97
2023-04-12T01:22:32.936Z,87.87
2023-04-12T01:25:08.754Z,87.52
2023-04-12T01:27:39.764Z,87.55
2023-04-12T01:30:08.235Z,88.33
2023-04-12T01:32:35.235Z,88.76
2023-04-12T01:35:03.163Z,89.39
2023-04-12T01:37:29.996Z,88.75
2023-04-12T01:39:56.655Z,87.84
2023-04-12T01:42:23.329Z,89.21
2023-04-12T01:44:50.576Z,89.02
2023-04-12T01:47:17.258Z,90.20
2023-04-12T01:49:47.870Z,90.33
2023-04-12T01:52:14.624Z,89.66
2023-04-12T01:54:42.192Z,89.74
2023-04-12T01:57:08.849Z,88.19
2023-04-12T01:59:36.952Z,88.44
2023-04-12T02:02:03.789Z,88.01
2023-04-12T02:04:30.592Z,88.56
2023-04-12T02:06:57.293Z,88.00
2023-04-12T02:09:24.155Z,88.06
2023-04-12T02:11:51.029Z,88.81
2023-04-12T02:14:17.779Z,87.00
2023-04-12T02:16:44.954Z,88.77
2023-04-12T02:19:12.144Z,88.05
2023-04-12T02:21:42.517Z,87.51
2023-04-12T02:24:09.578Z,88.61
2023-04-12T02:26:37.325Z,88.60
2023-04-12T02:29:09.577Z,89.52
2023-04-12T02:31:36.951Z,88.97
2023-04-12T02:34:03.772Z,89.92
2023-04-12T02:36:30.529Z,89.54
2023-04-12T02:38:57.374Z,90.30
2023-04-12T02:41:24.340Z,91.51
2023-04-12T02:43:51.287Z,91.11
2023-04-12T02:46:21.875Z,91.30
2023-04-12T02:48:49.201Z,90.36
2023-04-12T02:51:15.995Z,89.73
2023-04-12T02:53:42.783Z,90.49
2023-04-12T02:56:09.809Z,89.19
2023-04-12T02:58:36.820Z,88.74
2023-04-12T03:01:07.799Z,89.87
2023-04-12T03:03:35.247Z,89.77
2023-04-12T03:06:02.046Z,89.51
2023-04-12T03:08:28.708Z,90.53
2023-04-12T03:10:55.566Z,89.65
2023-04-12T03:13:22.222Z,89.27
2023-04-12T03:15:51.593Z,89.40
2023-04-12T03:18:21.325Z,89.17
2023-04-12T03:20:48.502Z,89.32
2023-04-12T03:23:15.233Z,90.79
2023-04-12T03:25:42.111Z,90.43
2023-04-12T03:28:09.036Z,88.94
2023-04-12T03:30:35.836Z,89.53
2023-04-12T03:33:02.582Z,88.19
2023-04-12T03:35:29.283Z,90.65
2023-04-12T03:37:56.154Z,91.97
2023-04-12T03:40:22.877Z,90.04
2023-04-12T03:42:49.553Z,91.26
2023-04-12T03:45:16.334Z,92.19
2023-04-12T03:47:43.008Z,92.77
2023-04-12T03:50:12.303Z,92.57
2023-04-12T03:52:39.401Z,91.33
2023-04-12T03:55:07.824Z,93.44
2023-04-12T03:57:34.991Z,91.34
2023-04-12T04:00:01.764Z,86.58
2023-04-12T04:02:28.661Z,88.25
2023-04-12T04:04:55.689Z,88.95
2023-04-12T04:07:22.465Z,89.45
2023-04-12T04:09:50.189Z,88.94
2023-04-12T04:12:17.057Z,90.47
2023-04-12T04:14:44.270Z,92.42
2023-04-12T04:17:11.157Z,91.34
2023-04-12T04:19:37.868Z,91.77
2023-04-12T04:22:04.870Z,89.46
2023-04-12T04:24:31.578Z,90.34
2023-04-12T04:26:58.952Z,89.00
2023-04-12T04:29:26.125Z,90.25
2023-04-12T04:31:54.057Z,87.79
2023-04-12T04:34:22.403Z,86.00
2023-04-12T04:36:49.172Z,85.66
2023-04-12T04:39:15.951Z,86.31
2023-04-12T04:41:42.835Z,87.49
2023-04-12T04:44:09.654Z,86.28
2023-04-12T04:46:38.201Z,86.99
2023-04-12T04:49:05.526Z,85.98
2023-04-12T04:51:32.349Z,85.22
2023-04-12T04:53:59.230Z,85.33
2023-04-12T04:56:26.387Z,85.18
2023-04-12T04:58:54.114Z,85.05
2023-04-12T05:01:26.371Z,84.50
2023-04-12T05:03:53.201Z,82.72
2023-04-12T05:06:20.025Z,82.07
2023-04-12T05:08:46.679Z,81.36
2023-04-12T05:11:13.325Z,83.04
2023-04-12T05:13:39.993Z,81.06
2023-04-12T05:16:08.153Z,80.92
2023-04-12T05:18:34.874Z,75.96
2023-04-12T05:21:05.609Z,73.39
2023-04-12T05:23:41.979Z,68.29
2023-04-12T05:26:08.751Z,66.91
2023-04-12T05:28:35.462Z,62.48
2023-04-12T05:31:02.431Z,62.07
2023-04-12T05:33:30.579Z,60.78
2023-04-12T05:35:58.344Z,59.32
2023-04-12T05:38:25.079Z,55.55
2023-04-12T05:40:51.753Z,55.08
2023-04-12T05:43:18.472Z,56.94
2023-04-12T05:45:45.112Z,56.21
2023-04-12T05:48:11.849Z,54.50
2023-04-12T05:50:38.563Z,52.79
2023-04-12T05:53:05.223Z,53.27
2023-04-12T05:55:31.968Z,54.30
2023-04-12T05:58:38.901Z,53.04
2023-04-12T06:01:05.791Z,54.16
2023-04-12T06:03:33.508Z,53.78
2023-04-12T06:06:02.617Z,53.16
2023-04-12T06:08:29.604Z,53.58
2023-04-12T06:10:56.244Z,52.57
2023-04-12T06:13:22.967Z,52.11
2023-04-12T06:15:49.653Z,51.49
2023-04-12T06:18:17.411Z,52.13
2023-04-12T06:20:44.164Z,52.47
2023-04-12T06:23:10.913Z,53.23
2023-04-12T06:25:37.690Z,54.11
2023-04-12T06:28:05.542Z,55.43
2023-04-12T06:30:32.413Z,56.17
2023-04-12T06:32:59.125Z,58.52
2023-04-12T06:35:25.866Z,58.43
2023-04-12T06:37:53.594Z,57.54
2023-04-12T06:40:20.582Z,58.11
2023-04-12T06:42:47.279Z,57.10
2023-04-12T06:45:14.487Z,56.19
2023-04-12T06:47:47.488Z,55.33
2023-04-12T06:50:14.253Z,56.21
2023-04-12T06:52:41.027Z,55.95
2023-04-12T06:55:08.063Z,55.36
2023-04-12T06:57:34.739Z,54.42
2023-04-12T07:00:02.227Z,53.73
2023-04-12T07:02:28.924Z,55.08
2023-04-12T07:04:55.713Z,55.08
2023-04-12T07:07:23.110Z,54.77
2023-04-12T07:09:57.616Z,55.31
2023-04-12T07:12:24.447Z,55.24
2023-04-12T07:14:51.093Z,53.69
2023-04-12T07:17:17.814Z,54.15
2023-04-12T07:19:52.385Z,55.27
2023-04-12T07:22:19.020Z,55.66
2023-04-12T07:24:45.725Z,52.02
2023-04-12T07:27:12.538Z,54.33
2023-04-12T07:29:39.215Z,54.48
2023-04-12T07:32:06.129Z,53.24
2023-04-12T07:34:32.873Z,53.04
2023-04-12T07:37:01.181Z,53.29
2023-04-12T07:39:29.849Z,51.70
2023-04-12T07:41:56.741Z,52.83
2023-04-12T07:44:23.492Z,51.00
2023-04-12T07:46:50.145Z,50.06
2023-04-12T07:49:16.817Z,50.33
2023-04-12T07:51:43.877Z,48.88
2023-04-12T07:54:10.589Z,47.18
2023-04-12T07:56:37.317Z,47.41
2023-04-12T07:59:05.028Z,47.75
2023-04-12T08:01:31.964Z,48.80
2023-04-12T08:03:59.124Z,47.09
2023-04-12T08:06:30.569Z,46.16
2023-04-12T08:08:59.685Z,45.01
2023-04-12T08:11:26.385Z,45.83
2023-04-12T08:13:53.611Z,46.13
2023-04-12T08:16:21.214Z,45.19
2023-04-12T08:18:49.105Z,45.09
2023-04-12T08:21:15.778Z,45.60
2023-04-12T08:23:42.505Z,44.32
2023-04-12T08:26:09.446Z,45.36
2023-04-12T08:28:43.196Z,44.29
2023-04-12T08:31:09.907Z,43.67
2023-04-12T08:33:36.630Z,45.01
2023-04-12T08:36:03.556Z,45.87
2023-04-12T08:38:44.123Z,46.42
2023-04-12T08:41:13.013Z,43.52
2023-04-12T08:43:40.082Z,43.04
2023-04-12T08:46:08.163Z,40.92
2023-04-12T08:48:35.073Z,42.09
2023-04-12T08:51:01.802Z,42.56
2023-04-12T08:53:28.587Z,39.93
2023-04-12T08:55:55.362Z,40.55
2023-04-12T08:58:22.098Z,40.44
2023-04-12T09:00:48.743Z,38.68
2023-04-12T09:03:15.805Z,41.31
2023-04-12T09:05:42.744Z,41.88
2023-04-12T09:08:09.462Z,39.08
2023-04-12T09:10:37.308Z,39.81
2023-04-12T09:13:04.714Z,40.16
2023-04-12T09:15:31.492Z,39.67
2023-04-12T09:18:09.499Z,40.72
2023-04-12T09:20:36.734Z,40.19
2023-04-12T09:23:24.260Z,39.27
2023-04-12T09:25:54.040Z,36.36
2023-04-12T09:28:25.848Z,40.46
2023-04-12T09:30:53.515Z,38.57
2023-04-12T09:33:24.054Z,36.50
2023-04-12T09:35:51.433Z,33.52
2023-04-12T09:38:19.259Z,34.91
2023-04-12T09:40:46.079Z,34.58
2023-04-12T09:43:12.827Z,34.23
2023-04-12T09:45:39.621Z,33.03
2023-04-12T09:48:08.040Z,32.75
2023-04-12T09:50:34.868Z,32.69
2023-04-12T09:53:02.460Z,33.02
2023-04-12T09:55:29.825Z,32.29
2023-04-12T09:58:00.802Z,31.93
2023-04-12T10:00:27.879Z,31.00
2023-04-12T10:02:55.369Z,31.86
2023-04-12T10:05:23.665Z,30.85
2023-04-12T10:07:51.163Z,31.11
2023-04-12T10:10:18.436Z,32.34
2023-04-12T10:12:46.808Z,32.61
2023-04-12T10:15:15.595Z,31.96
2023-04-12T10:18:04.253Z,32.08
2023-04-12T10:20:31.008Z,30.55
2023-04-12T10:22:59.701Z,29.39
2023-04-12T10:25:27.438Z,29.60
2023-04-12T10:27:54.112Z,26.73
2023-04-12T10:30:24.713Z,28.62
2023-04-12T10:33:03.932Z,25.75
2023-04-12T10:35:49.515Z,26.22
2023-04-12T10:41:38.195Z,28.30
2023-04-12T10:44:23.966Z,27.55
2023-04-12T10:46:51.005Z,29.25
2023-04-12T10:49:18.190Z,28.26
2023-04-12T10:52:03.535Z,29.70
2023-04-12T10:54:30.384Z,26.93
2023-04-12T10:56:57.703Z,24.42
2023-04-12T10:59:31.299Z,26.74
2023-04-12T11:02:07.514Z,29.56
2023-04-12T11:04:34.740Z,28.16
2023-04-12T11:07:03.579Z,27.11
2023-04-12T11:09:33.398Z,24.07
2023-04-12T11:12:07.404Z,25.12
2023-04-12T11:14:54.055Z,25.69
2023-04-12T11:17:21.504Z,26.80
2023-04-12T11:19:51.442Z,27.00
2023-04-12T11:22:20.780Z,27.02
2023-04-12T11:24:51.560Z,27.45
2023-04-12T11:27:19.316Z,25.22
2023-04-12T11:29:47.700Z,25.28
2023-04-12T11:32:14.644Z,28.49
2023-04-12T11:34:42.238Z,26.82
2023-04-12T11:37:09.300Z,25.26
2023-04-12T11:39:36.860Z,25.62
2023-04-12T11:42:03.942Z,27.08
2023-04-12T11:44:40.660Z,25.96
2023-04-12T11:47:18.667Z,25.71
2023-04-12T11:49:46.229Z,27.32
2023-04-12T11:52:13.236Z,27.09
2023-04-12T11:54:43.591Z,26.54
2023-04-12T11:57:11.674Z,25.87
2023-04-12T11:59:38.341Z,27.10
2023-04-12T12:02:17.081Z,25.81
2023-04-12T12:04:49.459Z,25.13
2023-04-12T12:07:16.814Z,24.95
2023-04-12T12:09:44.095Z,23.57
2023-04-12T12:12:14.170Z,23.62
2023-04-12T12:14:41.002Z,24.97
2023-04-12T12:17:11.876Z,25.12
2023-04-12T12:19:39.578Z,26.13
2023-04-12T12:22:13.099Z,24.37
2023-04-12T12:24:58.053Z,23.53
2023-04-12T12:27:25.576Z,24.46
2023-04-12T12:29:53.548Z,25.87
2023-04-12T12:32:20.989Z,25.01
2023-04-12T12:34:54.475Z,24.61
2023-04-12T12:37:22.223Z,25.88
2023-04-12T12:40:01.411Z,25.60
2023-04-12T12:42:28.516Z,24.63
2023-04-12T12:44:55.218Z,25.90
2023-04-12T12:47:21.917Z,23.88
2023-04-12T12:49:48.624Z,23.63
2023-04-12T12:52:17.755Z,23.86
2023-04-12T12:54:45.061Z,24.49
2023-04-12T12:57:11.748Z,22.58
2023-04-12T12:59:38.442Z,23.38
2023-04-12T13:02:05.729Z,22.90
2023-04-12T13:04:32.806Z,24.13
2023-04-12T13:06:59.604Z,24.32
2023-04-12T13:09:26.343Z,25.50
2023-04-12T13:11:53.092Z,25.17
2023-04-12T13:14:19.899Z,27.86
2023-04-12T13:16:48.769Z,26.69
2023-04-12T13:19:16.327Z,28.21
2023-04-12T13:21:43.051Z,27.50
2023-04-12T13:24:09.706Z,26.87
2023-04-12T13:26:36.425Z,26.01
2023-04-12T13:29:03.435Z,25.92
2023-04-12T13:31:30.161Z,29.19
2023-04-12T13:33:56.909Z,26.80
2023-04-12T13:36:23.607Z,26.31
2023-04-12T13:38:50.274Z,27.66
2023-04-12T13:41:16.959Z,28.20
2023-04-12T13:43:43.727Z,28.17
2023-04-12T13:46:10.479Z,29.50
2023-04-12T13:48:37.525Z,28.68
2023-04-12T13:51:04.392Z,28.74
2023-04-12T13:53:33.706Z,29.50
2023-04-12T13:56:00.396Z,27.26
2023-04-12T13:58:27.349Z,27.67
2023-04-12T14:00:59.534Z,27.38
2023-04-12T14:03:26.793Z,26.76
2023-04-12T14:05:53.589Z,26.88
2023-04-12T14:08:20.384Z,26.63
2023-04-12T14:10:47.070Z,26.89
2023-04-12T14:13:13.774Z,29.37
2023-04-12T14:15:40.518Z,28.17
2023-04-12T14:18:07.172Z,29.33
2023-04-12T14:20:33.852Z,28.49
2023-04-12T14:23:00.637Z,27.55
2023-04-12T14:25:27.448Z,27.69
2023-04-12T14:27:54.161Z,27.06
2023-04-12T14:30:20.831Z,28.15
2023-04-12T14:32:47.728Z,29.73
2023-04-12T14:35:14.450Z,29.43
2023-04-12T14:37:41.389Z,28.52
2023-04-12T14:40:08.664Z,28.96
2023-04-12T14:42:35.748Z,28.17
2023-04-12T14:45:02.528Z,29.30
2023-04-12T14:47:29.261Z,28.99
2023-04-12T14:49:55.992Z,28.86
2023-04-12T14:52:22.620Z,30.75
2023-04-12T14:54:49.298Z,29.37
2023-04-12T14:57:16.401Z,30.43
2023-04-12T14:59:43.153Z,31.11
2023-04-12T15:02:10.010Z,30.82
2023-04-12T15:04:37.066Z,29.68
2023-04-12T15:07:03.800Z,29.76
2023-04-12T15:09:30.711Z,30.35
2023-04-12T15:12:01.540Z,29.79
2023-04-12T15:14:28.396Z,28.87
2023-04-12T15:16:55.746Z,29.84
2023-04-12T15:19:23.647Z,30.31
2023-04-12T15:21:51.226Z,30.59
2023-04-12T15:24:22.430Z,31.01
2023-04-12T15:26:50.214Z,33.20
2023-04-12T15:29:17.017Z,32.23
2023-04-12T15:31:43.736Z,32.23
2023-04-12T15:34:10.887Z,32.13
2023-04-12T15:36:37.788Z,32.52
2023-04-12T15:39:07.420Z,32.50
2023-04-12T15:41:37.250Z,33.73
2023-04-12T15:44:04.366Z,33.63
2023-04-12T15:46:31.107Z,33.76
2023-04-12T15:48:58.529Z,33.39
2023-04-12T15:51:25.201Z,33.60
2023-04-12T15:53:51.831Z,33.71
2023-04-12T15:56:24.122Z,33.13
2023-04-12T15:58:57.926Z,32.87
2023-04-12T16:01:25.001Z,33.74
2023-04-12T16:03:52.124Z,34.52
2023-04-12T16:06:23.365Z,34.09
2023-04-12T16:08:50.522Z,34.65
2023-04-12T16:11:18.156Z,33.18
2023-04-12T16:13:45.888Z,34.31
2023-04-12T16:16:13.692Z,32.86
2023-04-12T16:18:41.690Z,33.31
2023-04-12T16:21:09.125Z,33.47
2023-04-12T16:23:38.982Z,33.71
2023-04-12T16:26:06.632Z,34.75
2023-04-12T16:28:33.651Z,33.61
2023-04-12T16:31:01.916Z,34.40
2023-04-12T16:33:31.493Z,34.35
2023-04-12T16:35:58.726Z,35.24
2023-04-12T16:38:25.902Z,34.61
2023-04-12T16:40:52.845Z,34.58
2023-04-12T16:43:21.596Z,34.45
2023-04-12T16:45:50.459Z,34.75
2023-04-12T16:48:17.655Z,34.36
2023-04-12T16:50:49.633Z,34.15
2023-04-12T16:53:17.510Z,35.29
2023-04-12T16:55:45.907Z,36.50
2023-04-12T16:58:12.872Z,35.79
2023-04-12T17:00:39.667Z,35.26
2023-04-12T17:03:07.390Z,35.13
2023-04-12T17:05:34.335Z,34.92
2023-04-12T17:08:01.164Z,35.13
2023-04-12T17:10:28.392Z,34.22
2023-04-12T17:12:55.900Z,34.95
2023-04-12T17:15:25.531Z,34.86
2023-04-12T17:17:53.220Z,34.63
2023-04-12T17:20:21.030Z,34.53
2023-04-12T17:22:48.156Z,34.56
2023-04-12T17:25:14.843Z,34.67
2023-04-12T17:27:41.936Z,34.86
2023-04-12T17:30:09.384Z,35.32
2023-04-12T17:32:39.053Z,35.42
2023-04-12T17:35:07.059Z,36.04
2023-04-12T17:37:34.197Z,36.08
2023-04-12T17:40:01.083Z,35.97
2023-04-12T17:42:27.898Z,36.88
2023-04-12T17:44:54.599Z,36.63
2023-04-12T17:47:22.640Z,36.60
2023-04-12T17:49:49.756Z,36.25
2023-04-12T17:52:17.241Z,35.59
2023-04-12T17:54:43.912Z,35.43
2023-04-12T17:57:10.941Z,36.83
2023-04-12T17:59:40.307Z,37.32
2023-04-12T18:02:07.228Z,37.37
2023-04-12T18:04:34.081Z,38.34
2023-04-12T18:07:01.640Z,38.69
2023-04-12T18:09:28.622Z,37.81
2023-04-12T18:11:55.349Z,38.01
2023-04-12T18:14:22.595Z,38.35
2023-04-12T18:16:49.504Z,38.41
2023-04-12T18:19:16.865Z,37.96
2023-04-12T18:21:44.820Z,37.92
2023-04-12T18:24:12.941Z,37.88
2023-04-12T18:26:39.715Z,38.29
2023-04-12T18:29:06.708Z,38.65
2023-04-12T18:31:33.574Z,37.98
2023-04-12T18:34:00.414Z,37.58
2023-04-12T18:36:27.557Z,38.69
2023-04-12T18:38:54.397Z,38.72
2023-04-12T18:41:21.162Z,39.74
2023-04-12T18:43:48.093Z,40.26
2023-04-12T18:46:17.987Z,40.86
2023-04-12T18:48:48.374Z,40.21
2023-04-12T18:51:15.170Z,39.14
2023-04-12T18:53:43.654Z,39.38
2023-04-12T18:56:10.834Z,40.04
2023-04-12T18:58:51.115Z,39.46
2023-04-12T19:01:24.454Z,40.55
2023-04-12T19:03:51.506Z,40.63
2023-04-12T19:06:18.465Z,39.71
2023-04-12T19:08:45.260Z,40.74
2023-04-12T19:11:12.417Z,40.35
2023-04-12T19:13:39.121Z,41.26
2023-04-12T19:16:08.738Z,40.58
2023-04-12T19:18:35.590Z,41.16
2023-04-12T19:21:02.866Z,41.14
2023-04-12T19:23:30.220Z,41.67
2023-04-12T19:26:00.047Z,41.49
2023-04-12T19:28:27.531Z,41.50
2023-04-12T19:30:54.465Z,42.00
2023-04-12T19:33:21.205Z,42.46
2023-04-12T19:35:48.209Z,41.57
2023-04-12T19:38:15.877Z,42.12
2023-04-12T19:40:42.874Z,40.99
2023-04-12T19:43:09.591Z,41.13
2023-04-12T19:45:36.530Z,40.88
2023-04-12T19:48:03.551Z,41.01
2023-04-12T19:50:31.326Z,40.31
2023-04-12T19:52:58.033Z,41.36
2023-04-12T19:55:25.464Z,41.08
2023-04-12T19:57:52.240Z,40.50
2023-04-12T20:00:23.361Z,40.50
2023-04-12T20:02:51.276Z,40.23
2023-04-12T20:05:18.220Z,41.38
2023-04-12T20:07:45.440Z,41.12
2023-04-12T20:10:12.880Z,42.00
2023-04-12T20:12:39.684Z,42.09
2023-04-12T20:15:08.464Z,42.13
2023-04-12T20:17:41.712Z,41.73
2023-04-12T20:20:10.863Z,42.73
2023-04-12T20:22:38.041Z,42.37
2023-04-12T20:25:05.632Z,42.16
2023-04-12T20:27:33.033Z,41.41
2023-04-12T20:30:00.541Z,42.55
2023-04-12T20:32:27.332Z,42.85
2023-04-12T20:34:54.983Z,42.29
2023-04-12T20:37:21.832Z,42.00
2023-04-12T20:39:48.546Z,42.71
2023-04-12T20:42:20.406Z,42.51
2023-04-12T20:44:47.584Z,44.05
2023-04-12T20:47:14.444Z,43.75
2023-04-12T20:49:41.573Z,42.89
2023-04-12T20:52:09.639Z,44.04
2023-04-12T20:54:36.696Z,45.67
2023-04-12T20:57:06.161Z,44.81
2023-04-12T20:59:33.530Z,45.02
2023-04-12T21:02:00.692Z,44.48
2023-04-12T21:04:27.917Z,44.09
2023-04-12T21:06:57.910Z,44.83
2023-04-12T21:09:24.855Z,44.96
2023-04-12T21:11:52.539Z,44.95
2023-04-12T21:14:19.588Z,45.25
2023-04-12T21:16:48.751Z,45.57
2023-04-12T21:19:16.097Z,46.28
2023-04-12T21:21:42.917Z,46.27
2023-04-12T21:24:09.604Z,46.47
2023-04-12T21:26:36.248Z,46.79
2023-04-12T21:29:02.957Z,47.38
2023-04-12T21:31:29.654Z,47.61
2023-04-12T21:34:00.200Z,48.08
2023-04-12T21:36:30.470Z,48.00
2023-04-12T21:39:00.350Z,48.37
2023-04-12T21:41:27.564Z,48.78
2023-04-12T21:43:54.203Z,48.87
2023-04-12T21:46:21.484Z,49.34
2023-04-12T21:48:48.157Z,48.68
2023-04-12T21:51:14.812Z,48.16
2023-04-12T21:53:41.496Z,48.34
2023-04-12T21:56:08.739Z,48.68
2023-04-12T21:58:35.461Z,47.97
2023-04-12T22:01:02.714Z,48.37
2023-04-12T22:03:29.592Z,47.80
2023-04-12T22:06:04.205Z,47.64
2023-04-12T22:08:33.206Z,48.02
2023-04-12T22:11:00.492Z,47.45
2023-04-12T22:13:27.312Z,47.00
2023-04-12T22:15:54.023Z,47.38
2023-04-12T22:18:20.677Z,46.87
2023-04-12T22:20:48.197Z,47.25
2023-04-12T22:23:18.221Z,46.44
2023-04-12T22:25:45.653Z,47.03
2023-04-12T22:28:12.727Z,47.00
2023-04-12T22:30:39.758Z,46.84
2023-04-12T22:33:08.503Z,48.07
2023-04-12T22:35:36.548Z,46.43
2023-04-12T22:38:04.265Z,46.84
2023-04-12T22:40:30.998Z,46.31
2023-04-12T22:42:58.287Z,45.98
2023-04-12T22:45:25.114Z,46.15
2023-04-12T22:47:53.033Z,46.87
2023-04-12T22:50:20.098Z,46.00
2023-04-12T22:52:50.088Z,45.04
2023-04-12T22:55:18.300Z,44.93
2023-04-12T22:57:45.152Z,44.72
2023-04-12T23:00:17.061Z,43.76
2023-04-12T23:02:45.079Z,44.24
2023-04-12T23:05:12.843Z,45.23
2023-04-12T23:07:41.333Z,45.15
2023-04-12T23:10:08.964Z,44.01
2023-04-12T23:12:36.303Z,43.53
2023-04-12T23:15:04.461Z,44.33
2023-04-12T23:17:31.283Z,43.28
2023-04-12T23:19:57.970Z,43.69
2023-04-12T23:22:48.594Z,42.74
2023-04-12T23:25:39.661Z,43.14
2023-04-12T23:28:14.325Z,42.95
2023-04-12T23:30:51.147Z,44.44
2023-04-12T23:33:18.736Z,46.54
2023-04-12T23:35:45.848Z,46.68
2023-04-12T23:38:32.958Z,47.54
2023-04-12T23:41:00.568Z,46.96
2023-04-12T23:43:27.244Z,47.36
2023-04-12T23:45:54.142Z,49.77
2023-04-12T23:48:20.974Z,47.55
2023-04-12T23:50:48.362Z,49.56
2023-04-12T23:53:15.654Z,47.82
2023-04-12T23:55:42.712Z,46.32
2023-04-12T23:58:09.499Z,46.95
